Aérodrome :
LOGIN :

S'inscrire | Disclaimer

   EN    FR    IT 

 










Légende :    VFR   VFR Marginal   IFR   IFR Intensif   IFR Très Intensif
Visi : 
Plafond : 
>= 8 km
>= 3000ft
5 à 8 km
1000 à 3000 ft
1500m à 5 km
500 à 1000 ft
800 à 1500m
200 à 500 ft
< 800m
< 200 ft
Symboles :   Orages  Brouillard  Fortes neiges  Fortes précipitations  Vent > 20 kt
SIGMETs :   Divers  Orages  Givrage  Turbulence  Onde Orograph.  Cendres Volcan.







- Altitude de l'aérodrome : 17 ft
- Code IATA : GRQ


EHGG - Groningen Eelde

DERNIER METAR :
  • 251755Z AUTO 26008KT 9999 FEW005 SCT046 05/03 Q1008 TEMPO 29015G25KT 6000 SHRA SCT025CB

METARs EXPIRÉS :
  • 251725Z AUTO 25010KT 9999 FEW006 SCT032 BKN036 05/02 Q1008 REDZ TEMPO 29015G25KT 6000 SHRAGS SCT025CB
  • 251655Z AUTO 27010KT 230V310 9999 NSC 07/02 Q1008 TEMPO 29015G25KT 6000 SHRA SCT025CB
  • 251625Z AUTO 27008KT 230V310 9999 FEW033 07/02 Q1008 TEMPO 29015G25KT 6000 SHRA SCT025CB
  • 251555Z AUTO 30011KT 260V350 9999 FEW021 BKN043 BKN048 07/02 Q1008 TEMPO 29015G25KT 6000 SHRA SCT025CB
  • 251525Z AUTO 27014KT 220V310 9999 FEW049/// 09/M01 Q1007 TEMPO 29015G25KT 6000 SHRA SCT025CB

TAF TAF EHGG
Valide du 25 à 18h jusqu'au 27 à 00h UTC


251702Z 2518/2624 27007KT 9999 SCT030
TEMPO 2518/2520 29015G25KT 6000 SHRA SHRAGS SCT012 SCT020CB
PROB30 2602/2607 6000 MIFG
BECMG 2609/2612 33010KT
PROB40
TEMPO 2611/2616 33012G22KT 4000 SHRA SHRAGS SCT012 SCT015CB
Pas de NOTAMs connus pour ce terrain.



MET'MAP, la Météo Aéronautique d'un coup d'oeil ! - Copyright ORBIFLY Décembre 2007 - Disclaimer

ORBIFLY MET'MAP TEAM :

Programmation & Développement : Alexandra Zaïnal
Conception & Développement : Baudouin d'Aumeries
Co-Programmation & Développement : Marc-Olivier Méhu
Soutien technique & logistique : Manuel Goepfert

Contact : metmap@orbifly.com




SOURCES & CREDITS :

   NOAA